sensor_id;sensor_type;location;lat;lon;timestamp;pressure;altitude;pressure_sealevel;temperature;humidity
47811;BME280;33575;52.600;7.318;2022-10-31T00:00:25;101826.48;;;15.56;92.45
47811;BME280;33575;52.600;7.318;2022-10-31T00:02:56;101825.79;;;15.52;92.41
47811;BME280;33575;52.600;7.318;2022-10-31T00:05:27;101826.56;;;15.49;92.34
47811;BME280;33575;52.600;7.318;2022-10-31T00:07:57;101829.89;;;15.44;92.23
47811;BME280;33575;52.600;7.318;2022-10-31T00:10:28;101831.28;;;15.37;92.12
47811;BME280;33575;52.600;7.318;2022-10-31T00:12:59;101834.20;;;15.32;92.32
47811;BME280;33575;52.600;7.318;2022-10-31T00:15:29;101837.85;;;15.28;92.21
47811;BME280;33575;52.600;7.318;2022-10-31T00:18:00;101836.48;;;15.22;92.27
47811;BME280;33575;52.600;7.318;2022-10-31T00:20:30;101839.89;;;15.18;92.07
47811;BME280;33575;52.600;7.318;2022-10-31T00:23:01;101843.29;;;15.11;92.30
47811;BME280;33575;52.600;7.318;2022-10-31T00:25:34;101851.31;;;15.05;92.25
47811;BME280;33575;52.600;7.318;2022-10-31T00:28:01;101848.29;;;14.97;92.55
47811;BME280;33575;52.600;7.318;2022-10-31T00:30:31;101850.59;;;14.92;92.80
47811;BME280;33575;52.600;7.318;2022-10-31T00:33:03;101853.96;;;14.89;92.99
47811;BME280;33575;52.600;7.318;2022-10-31T00:35:32;101850.26;;;14.88;93.44
47811;BME280;33575;52.600;7.318;2022-10-31T00:38:02;101845.27;;;14.85;93.46
47811;BME280;33575;52.600;7.318;2022-10-31T00:40:32;101846.01;;;14.85;93.55
47811;BME280;33575;52.600;7.318;2022-10-31T00:43:03;101840.85;;;14.85;93.48
47811;BME280;33575;52.600;7.318;2022-10-31T00:45:33;101841.02;;;14.82;93.53
47811;BME280;33575;52.600;7.318;2022-10-31T00:48:05;101844.47;;;14.80;93.46
47811;BME280;33575;52.600;7.318;2022-10-31T00:50:34;101841.28;;;14.75;93.44
47811;BME280;33575;52.600;7.318;2022-10-31T00:53:05;101838.82;;;14.71;93.55
47811;BME280;33575;52.600;7.318;2022-10-31T00:55:35;101844.05;;;14.72;93.59
47811;BME280;33575;52.600;7.318;2022-10-31T00:58:06;101850.97;;;14.72;93.54
47811;BME280;33575;52.600;7.318;2022-10-31T01:00:35;101852.25;;;14.72;93.49
47811;BME280;33575;52.600;7.318;2022-10-31T01:03:06;101857.59;;;14.74;93.37
47811;BME280;33575;52.600;7.318;2022-10-31T01:05:36;101857.34;;;14.75;93.16
47811;BME280;33575;52.600;7.318;2022-10-31T01:08:07;101857.85;;;14.72;93.24
47811;BME280;33575;52.600;7.318;2022-10-31T01:10:37;101858.84;;;14.72;93.21
47811;BME280;33575;52.600;7.318;2022-10-31T01:13:08;101861.12;;;14.72;93.17
47811;BME280;33575;52.600;7.318;2022-10-31T01:15:38;101863.57;;;14.71;92.90
47811;BME280;33575;52.600;7.318;2022-10-31T01:18:09;101867.70;;;14.70;93.00
47811;BME280;33575;52.600;7.318;2022-10-31T01:20:39;101869.34;;;14.69;92.66
47811;BME280;33575;52.600;7.318;2022-10-31T01:23:09;101876.61;;;14.64;92.43
47811;BME280;33575;52.600;7.318;2022-10-31T01:25:40;101876.52;;;14.60;92.42
47811;BME280;33575;52.600;7.318;2022-10-31T01:28:10;101872.19;;;14.58;92.43
47811;BME280;33575;52.600;7.318;2022-10-31T01:30:41;101871.22;;;14.55;92.35
47811;BME280;33575;52.600;7.318;2022-10-31T01:33:11;101872.68;;;14.53;92.26
47811;BME280;33575;52.600;7.318;2022-10-31T01:35:42;101870.65;;;14.50;92.25
47811;BME280;33575;52.600;7.318;2022-10-31T01:38:12;101871.55;;;14.44;92.28
47811;BME280;33575;52.600;7.318;2022-10-31T01:40:43;101870.13;;;14.40;92.39
47811;BME280;33575;52.600;7.318;2022-10-31T01:43:14;101872.05;;;14.39;92.39
47811;BME280;33575;52.600;7.318;2022-10-31T01:45:49;101873.15;;;14.37;92.49
47811;BME280;33575;52.600;7.318;2022-10-31T01:48:16;101874.57;;;14.35;92.58
47811;BME280;33575;52.600;7.318;2022-10-31T01:50:47;101876.77;;;14.31;92.78
47811;BME280;33575;52.600;7.318;2022-10-31T01:53:15;101873.72;;;14.29;92.78
47811;BME280;33575;52.600;7.318;2022-10-31T01:55:46;101874.06;;;14.26;92.81
47811;BME280;33575;52.600;7.318;2022-10-31T01:58:22;101873.56;;;14.24;92.84
47811;BME280;33575;52.600;7.318;2022-10-31T02:00:49;101868.59;;;14.22;92.66
47811;BME280;33575;52.600;7.318;2022-10-31T02:03:17;101871.66;;;14.19;92.92
47811;BME280;33575;52.600;7.318;2022-10-31T02:05:48;101876.00;;;14.17;92.77
47811;BME280;33575;52.600;7.318;2022-10-31T02:08:23;101878.75;;;14.15;93.26
47811;BME280;33575;52.600;7.318;2022-10-31T02:10:48;101880.92;;;14.14;93.82
47811;BME280;33575;52.600;7.318;2022-10-31T02:13:20;101875.80;;;14.13;94.29
47811;BME280;33575;52.600;7.318;2022-10-31T02:15:52;101878.96;;;14.12;94.50
47811;BME280;33575;52.600;7.318;2022-10-31T02:18:21;101877.25;;;14.13;94.21
47811;BME280;33575;52.600;7.318;2022-10-31T02:20:58;101872.51;;;14.14;94.02
47811;BME280;33575;52.600;7.318;2022-10-31T02:23:31;101870.04;;;14.15;93.89
47811;BME280;33575;52.600;7.318;2022-10-31T02:26:03;101871.08;;;14.14;93.77
47811;BME280;33575;52.600;7.318;2022-10-31T02:28:33;101872.72;;;14.15;93.51
47811;BME280;33575;52.600;7.318;2022-10-31T02:31:00;101872.18;;;14.15;93.42
47811;BME280;33575;52.600;7.318;2022-10-31T02:33:25;101875.71;;;14.16;93.19
47811;BME280;33575;52.600;7.318;2022-10-31T02:35:59;101872.09;;;14.14;92.91
47811;BME280;33575;52.600;7.318;2022-10-31T02:38:34;101874.37;;;14.08;92.98
47811;BME280;33575;52.600;7.318;2022-10-31T02:41:01;101873.49;;;14.07;92.96
47811;BME280;33575;52.600;7.318;2022-10-31T02:43:30;101871.85;;;14.04;93.04
47811;BME280;33575;52.600;7.318;2022-10-31T02:45:58;101876.40;;;14.02;92.57
47811;BME280;33575;52.600;7.318;2022-10-31T02:48:28;101874.46;;;14.00;92.88
47811;BME280;33575;52.600;7.318;2022-10-31T02:50:58;101869.31;;;13.99;92.89
47811;BME280;33575;52.600;7.318;2022-10-31T02:53:32;101866.43;;;13.99;92.65
47811;BME280;33575;52.600;7.318;2022-10-31T02:56:00;101869.12;;;13.93;92.69
47811;BME280;33575;52.600;7.318;2022-10-31T02:58:31;101866.56;;;13.93;92.62
47811;BME280;33575;52.600;7.318;2022-10-31T03:01:14;101865.27;;;13.90;92.42
47811;BME280;33575;52.600;7.318;2022-10-31T03:03:35;101861.21;;;13.86;92.39
47811;BME280;33575;52.600;7.318;2022-10-31T03:06:02;101863.01;;;13.82;92.38
47811;BME280;33575;52.600;7.318;2022-10-31T03:08:34;101863.43;;;13.76;92.30
47811;BME280;33575;52.600;7.318;2022-10-31T03:11:02;101867.17;;;13.66;92.30
47811;BME280;33575;52.600;7.318;2022-10-31T03:13:34;101871.58;;;13.62;92.32
47811;BME280;33575;52.600;7.318;2022-10-31T03:16:07;101874.68;;;13.58;92.36
47811;BME280;33575;52.600;7.318;2022-10-31T03:18:33;101877.52;;;13.55;92.19
47811;BME280;33575;52.600;7.318;2022-10-31T03:21:04;101878.71;;;13.52;92.20
47811;BME280;33575;52.600;7.318;2022-10-31T03:23:32;101879.70;;;13.46;92.11
47811;BME280;33575;52.600;7.318;2022-10-31T03:26:05;101874.05;;;13.38;91.23
47811;BME280;33575;52.600;7.318;2022-10-31T03:28:37;101878.48;;;13.30;91.58
47811;BME280;33575;52.600;7.318;2022-10-31T03:31:09;101880.77;;;13.22;91.37
47811;BME280;33575;52.600;7.318;2022-10-31T03:33:36;101881.35;;;13.14;91.43
47811;BME280;33575;52.600;7.318;2022-10-31T03:36:07;101881.81;;;13.07;91.55
47811;BME280;33575;52.600;7.318;2022-10-31T03:38:36;101876.27;;;13.05;91.95
47811;BME280;33575;52.600;7.318;2022-10-31T03:41:07;101873.04;;;13.07;91.97
47811;BME280;33575;52.600;7.318;2022-10-31T03:43:41;101878.02;;;13.07;91.70
47811;BME280;33575;52.600;7.318;2022-10-31T03:46:07;101874.05;;;13.05;91.55
47811;BME280;33575;52.600;7.318;2022-10-31T03:48:38;101880.02;;;13.04;91.62
47811;BME280;33575;52.600;7.318;2022-10-31T03:51:14;101883.64;;;13.02;91.66
47811;BME280;33575;52.600;7.318;2022-10-31T03:53:40;101885.27;;;13.02;91.76
47811;BME280;33575;52.600;7.318;2022-10-31T03:56:11;101883.89;;;13.02;91.72
47811;BME280;33575;52.600;7.318;2022-10-31T03:58:44;101883.15;;;13.01;91.60
47811;BME280;33575;52.600;7.318;2022-10-31T04:01:11;101882.73;;;12.98;91.62
47811;BME280;33575;52.600;7.318;2022-10-31T04:03:40;101884.73;;;12.97;91.55
47811;BME280;33575;52.600;7.318;2022-10-31T04:06:12;101887.76;;;12.98;91.49
47811;BME280;33575;52.600;7.318;2022-10-31T04:08:44;101891.60;;;12.98;91.47
47811;BME280;33575;52.600;7.318;2022-10-31T04:11:13;101894.36;;;12.94;91.20
47811;BME280;33575;52.600;7.318;2022-10-31T04:13:43;101894.52;;;12.89;91.14
47811;BME280;33575;52.600;7.318;2022-10-31T04:16:18;101894.67;;;12.84;91.04
47811;BME280;33575;52.600;7.318;2022-10-31T04:18:43;101892.92;;;12.79;91.04
47811;BME280;33575;52.600;7.318;2022-10-31T04:21:13;101891.91;;;12.77;90.97
47811;BME280;33575;52.600;7.318;2022-10-31T04:23:44;101889.57;;;12.74;90.61
47811;BME280;33575;52.600;7.318;2022-10-31T04:26:14;101891.08;;;12.69;90.62
47811;BME280;33575;52.600;7.318;2022-10-31T04:28:45;101894.84;;;12.64;90.65
47811;BME280;33575;52.600;7.318;2022-10-31T04:31:15;101894.33;;;12.61;90.73
47811;BME280;33575;52.600;7.318;2022-10-31T04:33:46;101893.73;;;12.57;90.92
47811;BME280;33575;52.600;7.318;2022-10-31T04:36:16;101892.43;;;12.55;91.01
47811;BME280;33575;52.600;7.318;2022-10-31T04:38:46;101897.47;;;12.52;91.03
47811;BME280;33575;52.600;7.318;2022-10-31T04:41:17;101897.17;;;12.43;91.14
47811;BME280;33575;52.600;7.318;2022-10-31T04:43:48;101893.96;;;12.35;91.21
47811;BME280;33575;52.600;7.318;2022-10-31T04:46:18;101892.45;;;12.31;91.35
47811;BME280;33575;52.600;7.318;2022-10-31T04:48:49;101892.42;;;12.28;91.43
47811;BME280;33575;52.600;7.318;2022-10-31T04:51:19;101895.40;;;12.24;91.54
47811;BME280;33575;52.600;7.318;2022-10-31T04:53:50;101894.60;;;12.20;91.58
47811;BME280;33575;52.600;7.318;2022-10-31T04:56:20;101894.60;;;12.19;91.63
47811;BME280;33575;52.600;7.318;2022-10-31T04:58:51;101897.90;;;12.21;91.51
47811;BME280;33575;52.600;7.318;2022-10-31T05:01:21;101897.04;;;12.21;91.35
47811;BME280;33575;52.600;7.318;2022-10-31T05:03:51;101898.37;;;12.22;91.25
47811;BME280;33575;52.600;7.318;2022-10-31T05:06:22;101895.78;;;12.20;91.13
47811;BME280;33575;52.600;7.318;2022-10-31T05:08:52;101899.64;;;12.16;91.07
47811;BME280;33575;52.600;7.318;2022-10-31T05:11:22;101899.63;;;12.13;91.04
47811;BME280;33575;52.600;7.318;2022-10-31T05:13:53;101898.84;;;12.01;91.05
47811;BME280;33575;52.600;7.318;2022-10-31T05:16:23;101895.18;;;11.94;91.12
47811;BME280;33575;52.600;7.318;2022-10-31T05:18:53;101895.42;;;11.92;91.22
47811;BME280;33575;52.600;7.318;2022-10-31T05:21:24;101895.14;;;11.90;91.27
47811;BME280;33575;52.600;7.318;2022-10-31T05:23:54;101893.05;;;11.88;91.37
47811;BME280;33575;52.600;7.318;2022-10-31T05:26:25;101888.09;;;11.84;91.38
47811;BME280;33575;52.600;7.318;2022-10-31T05:28:56;101887.51;;;11.77;91.50
47811;BME280;33575;52.600;7.318;2022-10-31T05:31:26;101884.30;;;11.73;91.47
47811;BME280;33575;52.600;7.318;2022-10-31T05:33:57;101882.98;;;11.68;91.74
47811;BME280;33575;52.600;7.318;2022-10-31T05:36:27;101884.98;;;11.65;91.83
47811;BME280;33575;52.600;7.318;2022-10-31T05:38:58;101888.93;;;11.68;91.87
47811;BME280;33575;52.600;7.318;2022-10-31T05:41:29;101889.89;;;11.63;91.71
47811;BME280;33575;52.600;7.318;2022-10-31T05:43:59;101889.59;;;11.55;91.69
47811;BME280;33575;52.600;7.318;2022-10-31T05:46:30;101888.23;;;11.47;91.91
47811;BME280;33575;52.600;7.318;2022-10-31T05:49:03;101887.19;;;11.47;92.22
47811;BME280;33575;52.600;7.318;2022-10-31T05:51:31;101886.90;;;11.48;92.31
47811;BME280;33575;52.600;7.318;2022-10-31T05:54:01;101887.29;;;11.53;92.32
47811;BME280;33575;52.600;7.318;2022-10-31T05:56:31;101887.57;;;11.54;92.36
47811;BME280;33575;52.600;7.318;2022-10-31T05:59:01;101887.80;;;11.57;92.32
47811;BME280;33575;52.600;7.318;2022-10-31T06:01:32;101888.14;;;11.57;92.30
47811;BME280;33575;52.600;7.318;2022-10-31T06:04:02;101886.22;;;11.56;92.40
47811;BME280;33575;52.600;7.318;2022-10-31T06:06:33;101882.93;;;11.57;92.49
47811;BME280;33575;52.600;7.318;2022-10-31T06:09:04;101878.89;;;11.53;92.64
47811;BME280;33575;52.600;7.318;2022-10-31T06:11:34;101879.87;;;11.53;92.89
47811;BME280;33575;52.600;7.318;2022-10-31T06:14:05;101879.20;;;11.50;93.25
47811;BME280;33575;52.600;7.318;2022-10-31T06:16:35;101876.99;;;11.46;93.52
47811;BME280;33575;52.600;7.318;2022-10-31T06:19:05;101877.32;;;11.42;93.59
47811;BME280;33575;52.600;7.318;2022-10-31T06:21:36;101877.83;;;11.42;93.64
47811;BME280;33575;52.600;7.318;2022-10-31T06:24:06;101881.25;;;11.43;93.90
47811;BME280;33575;52.600;7.318;2022-10-31T06:26:37;101880.91;;;11.43;94.21
47811;BME280;33575;52.600;7.318;2022-10-31T06:29:07;101878.62;;;11.47;94.40
47811;BME280;33575;52.600;7.318;2022-10-31T06:31:37;101877.31;;;11.52;94.37
47811;BME280;33575;52.600;7.318;2022-10-31T06:34:07;101880.68;;;11.59;94.37
47811;BME280;33575;52.600;7.318;2022-10-31T06:36:37;101885.00;;;11.65;94.20
47811;BME280;33575;52.600;7.318;2022-10-31T06:39:08;101889.68;;;11.72;93.80
47811;BME280;33575;52.600;7.318;2022-10-31T06:41:38;101892.20;;;11.77;93.45
47811;BME280;33575;52.600;7.318;2022-10-31T06:44:09;101895.58;;;11.81;93.18
47811;BME280;33575;52.600;7.318;2022-10-31T06:46:39;101894.07;;;11.84;93.39
47811;BME280;33575;52.600;7.318;2022-10-31T06:49:10;101895.60;;;11.85;93.47
47811;BME280;33575;52.600;7.318;2022-10-31T06:51:40;101897.64;;;11.87;93.31
47811;BME280;33575;52.600;7.318;2022-10-31T06:54:11;101895.15;;;11.84;93.29
47811;BME280;33575;52.600;7.318;2022-10-31T06:56:41;101893.50;;;11.84;93.23
47811;BME280;33575;52.600;7.318;2022-10-31T06:59:12;101897.36;;;11.83;93.17
47811;BME280;33575;52.600;7.318;2022-10-31T07:01:42;101902.93;;;11.86;93.24
47811;BME280;33575;52.600;7.318;2022-10-31T07:04:13;101900.64;;;11.88;93.34
47811;BME280;33575;52.600;7.318;2022-10-31T07:06:43;101898.36;;;11.88;93.41
47811;BME280;33575;52.600;7.318;2022-10-31T07:09:14;101900.60;;;11.88;93.41
47811;BME280;33575;52.600;7.318;2022-10-31T07:11:44;101902.14;;;11.88;93.41
47811;BME280;33575;52.600;7.318;2022-10-31T07:14:15;101904.38;;;11.88;93.52
47811;BME280;33575;52.600;7.318;2022-10-31T07:16:48;101904.17;;;11.90;93.60
47811;BME280;33575;52.600;7.318;2022-10-31T07:19:16;101903.19;;;11.91;93.69
47811;BME280;33575;52.600;7.318;2022-10-31T07:21:46;101904.37;;;11.93;93.76
47811;BME280;33575;52.600;7.318;2022-10-31T07:24:16;101909.96;;;11.96;93.77
47811;BME280;33575;52.600;7.318;2022-10-31T07:26:47;101914.70;;;12.01;93.83
47811;BME280;33575;52.600;7.318;2022-10-31T07:29:17;101911.04;;;12.02;93.84
47811;BME280;33575;52.600;7.318;2022-10-31T07:31:47;101905.48;;;12.02;93.87
47811;BME280;33575;52.600;7.318;2022-10-31T07:34:18;101909.13;;;12.04;93.85
47811;BME280;33575;52.600;7.318;2022-10-31T07:36:50;101913.15;;;12.08;93.80
47811;BME280;33575;52.600;7.318;2022-10-31T07:39:19;101913.23;;;12.10;93.78
47811;BME280;33575;52.600;7.318;2022-10-31T07:41:49;101917.19;;;12.13;93.90
47811;BME280;33575;52.600;7.318;2022-10-31T07:44:20;101920.67;;;12.16;93.95
47811;BME280;33575;52.600;7.318;2022-10-31T07:46:50;101920.78;;;12.20;93.84
47811;BME280;33575;52.600;7.318;2022-10-31T07:49:20;101922.18;;;12.23;93.69
47811;BME280;33575;52.600;7.318;2022-10-31T07:51:51;101921.45;;;12.25;93.70
47811;BME280;33575;52.600;7.318;2022-10-31T07:54:21;101921.82;;;12.27;93.68
47811;BME280;33575;52.600;7.318;2022-10-31T07:56:51;101924.11;;;12.27;93.77
47811;BME280;33575;52.600;7.318;2022-10-31T07:59:22;101923.50;;;12.28;93.80
47811;BME280;33575;52.600;7.318;2022-10-31T08:01:52;101924.51;;;12.28;93.91
47811;BME280;33575;52.600;7.318;2022-10-31T08:04:22;101926.38;;;12.29;93.95
47811;BME280;33575;52.600;7.318;2022-10-31T08:06:52;101925.03;;;12.32;93.95
47811;BME280;33575;52.600;7.318;2022-10-31T08:09:23;101924.87;;;12.35;93.84
47811;BME280;33575;52.600;7.318;2022-10-31T08:11:53;101930.26;;;12.40;93.98
47811;BME280;33575;52.600;7.318;2022-10-31T08:14:24;101929.19;;;12.45;93.95
47811;BME280;33575;52.600;7.318;2022-10-31T08:16:54;101932.74;;;12.48;93.97
47811;BME280;33575;52.600;7.318;2022-10-31T08:19:25;101929.59;;;12.51;93.91
47811;BME280;33575;52.600;7.318;2022-10-31T08:21:56;101931.74;;;12.55;94.01
47811;BME280;33575;52.600;7.318;2022-10-31T08:24:26;101926.13;;;12.58;94.15
47811;BME280;33575;52.600;7.318;2022-10-31T08:26:56;101923.84;;;12.61;94.18
47811;BME280;33575;52.600;7.318;2022-10-31T08:29:26;101913.65;;;12.64;94.47
47811;BME280;33575;52.600;7.318;2022-10-31T08:31:57;101910.48;;;12.67;94.83
47811;BME280;33575;52.600;7.318;2022-10-31T08:34:27;101909.37;;;12.72;94.94
47811;BME280;33575;52.600;7.318;2022-10-31T08:36:57;101910.43;;;12.76;94.86
47811;BME280;33575;52.600;7.318;2022-10-31T08:39:28;101911.58;;;12.78;95.07
47811;BME280;33575;52.600;7.318;2022-10-31T08:41:58;101907.08;;;12.81;94.76
47811;BME280;33575;52.600;7.318;2022-10-31T08:44:29;101906.24;;;12.85;94.87
47811;BME280;33575;52.600;7.318;2022-10-31T08:46:59;101902.64;;;12.90;94.73
47811;BME280;33575;52.600;7.318;2022-10-31T08:49:29;101894.88;;;12.96;95.01
47811;BME280;33575;52.600;7.318;2022-10-31T08:51:59;101894.26;;;13.02;94.86
47811;BME280;33575;52.600;7.318;2022-10-31T08:54:29;101892.03;;;13.10;95.01
47811;BME280;33575;52.600;7.318;2022-10-31T08:57:00;101892.56;;;13.14;94.93
47811;BME280;33575;52.600;7.318;2022-10-31T08:59:31;101891.67;;;13.19;95.08
47811;BME280;33575;52.600;7.318;2022-10-31T09:02:01;101888.87;;;13.25;95.38
47811;BME280;33575;52.600;7.318;2022-10-31T09:04:31;101885.88;;;13.30;95.54
47811;BME280;33575;52.600;7.318;2022-10-31T09:07:06;101888.70;;;13.34;95.64
47811;BME280;33575;52.600;7.318;2022-10-31T09:09:31;101891.89;;;13.38;95.89
47811;BME280;33575;52.600;7.318;2022-10-31T09:12:02;101894.57;;;13.43;95.86
47811;BME280;33575;52.600;7.318;2022-10-31T09:14:33;101890.39;;;13.47;96.05
47811;BME280;33575;52.600;7.318;2022-10-31T09:17:03;101895.85;;;13.52;96.19
47811;BME280;33575;52.600;7.318;2022-10-31T09:19:33;101896.52;;;13.56;96.18
47811;BME280;33575;52.600;7.318;2022-10-31T09:22:04;101898.82;;;13.62;95.99
47811;BME280;33575;52.600;7.318;2022-10-31T09:24:35;101895.95;;;13.67;96.03
47811;BME280;33575;52.600;7.318;2022-10-31T09:27:05;101900.27;;;13.71;96.05
47811;BME280;33575;52.600;7.318;2022-10-31T09:29:36;101904.65;;;13.79;96.05
47811;BME280;33575;52.600;7.318;2022-10-31T09:32:06;101904.08;;;13.85;95.89
47811;BME280;33575;52.600;7.318;2022-10-31T09:34:37;101905.86;;;13.91;95.78
47811;BME280;33575;52.600;7.318;2022-10-31T09:37:07;101902.01;;;13.96;95.81
47811;BME280;33575;52.600;7.318;2022-10-31T09:39:38;101900.66;;;14.01;95.93
47811;BME280;33575;52.600;7.318;2022-10-31T09:44:48;101897.73;;;14.13;95.98
47811;BME280;33575;52.600;7.318;2022-10-31T09:47:16;101894.25;;;14.18;96.23
47811;BME280;33575;52.600;7.318;2022-10-31T09:49:53;101890.87;;;14.22;96.26
47811;BME280;33575;52.600;7.318;2022-10-31T09:52:19;101888.55;;;14.27;96.25
47811;BME280;33575;52.600;7.318;2022-10-31T09:54:45;101890.91;;;14.32;96.24
47811;BME280;33575;52.600;7.318;2022-10-31T09:57:14;101889.57;;;14.36;96.12
47811;BME280;33575;52.600;7.318;2022-10-31T09:59:44;101886.68;;;14.41;96.44
47811;BME280;33575;52.600;7.318;2022-10-31T10:02:16;101887.50;;;14.47;96.32
47811;BME280;33575;52.600;7.318;2022-10-31T10:04:48;101889.99;;;14.51;96.43
47811;BME280;33575;52.600;7.318;2022-10-31T10:07:19;101889.56;;;14.57;96.72
47811;BME280;33575;52.600;7.318;2022-10-31T10:09:44;101888.82;;;14.59;96.70
47811;BME280;33575;52.600;7.318;2022-10-31T10:12:19;101891.46;;;14.63;96.38
47811;BME280;33575;52.600;7.318;2022-10-31T10:14:56;101891.18;;;14.67;96.37
47811;BME280;33575;52.600;7.318;2022-10-31T10:17:26;101889.04;;;14.70;96.34
47811;BME280;33575;52.600;7.318;2022-10-31T10:19:53;101891.13;;;14.71;96.15
47811;BME280;33575;52.600;7.318;2022-10-31T10:22:22;101886.82;;;14.75;96.31
47811;BME280;33575;52.600;7.318;2022-10-31T10:25:00;101879.96;;;14.78;96.45
47811;BME280;33575;52.600;7.318;2022-10-31T10:27:27;101878.02;;;14.83;96.41
47811;BME280;33575;52.600;7.318;2022-10-31T10:29:52;101881.94;;;14.89;96.41
47811;BME280;33575;52.600;7.318;2022-10-31T10:32:22;101884.57;;;14.94;96.06
47811;BME280;33575;52.600;7.318;2022-10-31T10:34:50;101888.03;;;14.99;95.89
47811;BME280;33575;52.600;7.318;2022-10-31T10:37:24;101886.50;;;15.04;96.08
47811;BME280;33575;52.600;7.318;2022-10-31T10:39:51;101880.30;;;15.07;95.92
47811;BME280;33575;52.600;7.318;2022-10-31T10:42:19;101882.87;;;15.12;96.19
47811;BME280;33575;52.600;7.318;2022-10-31T10:44:50;101876.49;;;15.18;95.87
47811;BME280;33575;52.600;7.318;2022-10-31T10:47:19;101873.13;;;15.23;95.92
47811;BME280;33575;52.600;7.318;2022-10-31T10:49:51;101868.68;;;15.27;96.05
47811;BME280;33575;52.600;7.318;2022-10-31T10:52:29;101867.58;;;15.34;96.20
47811;BME280;33575;52.600;7.318;2022-10-31T10:54:59;101862.19;;;15.36;96.21
47811;BME280;33575;52.600;7.318;2022-10-31T10:57:30;101854.59;;;15.39;95.76
47811;BME280;33575;52.600;7.318;2022-10-31T10:59:51;101846.32;;;15.38;95.64
47811;BME280;33575;52.600;7.318;2022-10-31T11:02:23;101843.77;;;15.38;95.00
47811;BME280;33575;52.600;7.318;2022-10-31T11:04:54;101844.43;;;15.48;95.18
47811;BME280;33575;52.600;7.318;2022-10-31T11:07:23;101848.27;;;15.54;95.13
47811;BME280;33575;52.600;7.318;2022-10-31T11:10:02;101847.23;;;15.60;94.67
47811;BME280;33575;52.600;7.318;2022-10-31T11:12:30;101841.44;;;15.67;94.76
47811;BME280;33575;52.600;7.318;2022-10-31T11:14:56;101823.74;;;15.74;94.80
47811;BME280;33575;52.600;7.318;2022-10-31T11:17:27;101815.32;;;15.80;94.67
47811;BME280;33575;52.600;7.318;2022-10-31T11:20:01;101819.48;;;15.84;94.18
47811;BME280;33575;52.600;7.318;2022-10-31T11:22:26;101817.38;;;15.89;94.39
47811;BME280;33575;52.600;7.318;2022-10-31T11:24:56;101808.31;;;15.92;94.25
47811;BME280;33575;52.600;7.318;2022-10-31T11:27:26;101793.04;;;15.96;94.31
47811;BME280;33575;52.600;7.318;2022-10-31T11:30:06;101789.11;;;16.01;94.07
47811;BME280;33575;52.600;7.318;2022-10-31T11:32:27;101785.49;;;16.05;94.10
47811;BME280;33575;52.600;7.318;2022-10-31T11:35:00;101796.77;;;16.05;93.76
47811;BME280;33575;52.600;7.318;2022-10-31T11:37:29;101794.98;;;16.09;93.68
47811;BME280;33575;52.600;7.318;2022-10-31T11:39:59;101785.37;;;16.13;93.15
47811;BME280;33575;52.600;7.318;2022-10-31T11:42:35;101782.49;;;16.17;93.08
47811;BME280;33575;52.600;7.318;2022-10-31T11:44:58;101774.65;;;16.20;92.84
47811;BME280;33575;52.600;7.318;2022-10-31T11:47:29;101765.67;;;16.21;92.57
47811;BME280;33575;52.600;7.318;2022-10-31T11:50:02;101760.79;;;16.24;92.40
47811;BME280;33575;52.600;7.318;2022-10-31T11:52:30;101757.33;;;16.27;92.15
47811;BME280;33575;52.600;7.318;2022-10-31T11:55:01;101751.34;;;16.30;91.74
47811;BME280;33575;52.600;7.318;2022-10-31T11:57:31;101746.43;;;16.32;91.92
47811;BME280;33575;52.600;7.318;2022-10-31T12:00:01;101743.99;;;16.35;92.20
47811;BME280;33575;52.600;7.318;2022-10-31T12:02:30;101741.10;;;16.34;91.95
47811;BME280;33575;52.600;7.318;2022-10-31T12:05:04;101739.15;;;16.31;91.78
47811;BME280;33575;52.600;7.318;2022-10-31T12:07:30;101735.26;;;16.28;91.81
47811;BME280;33575;52.600;7.318;2022-10-31T12:10:01;101738.87;;;16.24;92.07
47811;BME280;33575;52.600;7.318;2022-10-31T12:12:41;101729.62;;;16.24;96.66
47811;BME280;33575;52.600;7.318;2022-10-31T12:15:15;101730.80;;;16.26;93.27
47811;BME280;33575;52.600;7.318;2022-10-31T12:17:38;101728.03;;;16.23;92.36
47811;BME280;33575;52.600;7.318;2022-10-31T12:20:10;101729.33;;;16.17;91.91
47811;BME280;33575;52.600;7.318;2022-10-31T12:22:40;101718.41;;;16.14;92.04
47811;BME280;33575;52.600;7.318;2022-10-31T12:25:13;101721.33;;;16.07;91.40
47811;BME280;33575;52.600;7.318;2022-10-31T12:27:52;101708.53;;;16.02;91.72
47811;BME280;33575;52.600;7.318;2022-10-31T12:30:11;101700.44;;;15.99;92.27
47811;BME280;33575;52.600;7.318;2022-10-31T12:32:50;101694.73;;;16.02;92.50
47811;BME280;33575;52.600;7.318;2022-10-31T12:35:19;101683.51;;;16.07;92.41
47811;BME280;33575;52.600;7.318;2022-10-31T12:37:44;101685.64;;;16.11;92.21
47811;BME280;33575;52.600;7.318;2022-10-31T12:42:46;101662.83;;;16.21;91.85
47811;BME280;33575;52.600;7.318;2022-10-31T12:45:20;101661.78;;;16.23;91.85
47811;BME280;33575;52.600;7.318;2022-10-31T12:47:53;101657.01;;;16.25;91.70
47811;BME280;33575;52.600;7.318;2022-10-31T12:50:18;101636.33;;;16.29;91.38
47811;BME280;33575;52.600;7.318;2022-10-31T12:52:46;101631.54;;;16.33;91.19
47811;BME280;33575;52.600;7.318;2022-10-31T12:55:18;101631.01;;;16.34;91.69
47811;BME280;33575;52.600;7.318;2022-10-31T12:57:41;101633.76;;;16.38;91.87
47811;BME280;33575;52.600;7.318;2022-10-31T13:00:12;101639.10;;;16.43;91.67
47811;BME280;33575;52.600;7.318;2022-10-31T13:02:43;101643.61;;;16.49;91.69
47811;BME280;33575;52.600;7.318;2022-10-31T13:05:14;101633.69;;;16.53;90.72
47811;BME280;33575;52.600;7.318;2022-10-31T13:07:44;101625.18;;;16.57;90.83
47811;BME280;33575;52.600;7.318;2022-10-31T13:10:16;101616.22;;;16.57;90.90